sensor_id;sensor_type;location;lat;lon;timestamp;temperature;humidity
78886;DHT22;68269;52.514;5.722;2023-08-24T00:00:32;20.00;62.60
78886;DHT22;68269;52.514;5.722;2023-08-24T00:03:03;20.00;62.60
78886;DHT22;68269;52.514;5.722;2023-08-24T00:05:33;20.00;62.60
78886;DHT22;68269;52.514;5.722;2023-08-24T00:08:04;20.00;62.70
78886;DHT22;68269;52.514;5.722;2023-08-24T00:10:34;20.00;62.70
78886;DHT22;68269;52.514;5.722;2023-08-24T00:13:06;20.00;62.70
78886;DHT22;68269;52.514;5.722;2023-08-24T00:15:36;20.00;62.80
78886;DHT22;68269;52.514;5.722;2023-08-24T00:18:05;20.00;62.80
78886;DHT22;68269;52.514;5.722;2023-08-24T00:20:35;20.00;62.80
78886;DHT22;68269;52.514;5.722;2023-08-24T00:23:04;20.00;62.80
78886;DHT22;68269;52.514;5.722;2023-08-24T00:25:34;19.90;62.90
78886;DHT22;68269;52.514;5.722;2023-08-24T00:28:06;20.00;62.90
78886;DHT22;68269;52.514;5.722;2023-08-24T00:30:36;19.90;62.90
78886;DHT22;68269;52.514;5.722;2023-08-24T00:33:06;19.90;62.90
78886;DHT22;68269;52.514;5.722;2023-08-24T00:35:35;19.90;63.00
78886;DHT22;68269;52.514;5.722;2023-08-24T00:38:05;19.90;63.00
78886;DHT22;68269;52.514;5.722;2023-08-24T00:40:34;20.00;63.00
78886;DHT22;68269;52.514;5.722;2023-08-24T00:43:07;20.00;63.00
78886;DHT22;68269;52.514;5.722;2023-08-24T00:45:37;20.00;63.10
78886;DHT22;68269;52.514;5.722;2023-08-24T00:48:06;20.00;63.00
78886;DHT22;68269;52.514;5.722;2023-08-24T00:50:36;20.00;63.10
78886;DHT22;68269;52.514;5.722;2023-08-24T00:53:05;20.00;63.20
78886;DHT22;68269;52.514;5.722;2023-08-24T00:55:34;20.00;63.20
78886;DHT22;68269;52.514;5.722;2023-08-24T00:58:06;20.00;63.30
78886;DHT22;68269;52.514;5.722;2023-08-24T01:00:37;20.00;63.30
78886;DHT22;68269;52.514;5.722;2023-08-24T01:03:06;20.00;63.30
78886;DHT22;68269;52.514;5.722;2023-08-24T01:05:36;20.00;63.30
78886;DHT22;68269;52.514;5.722;2023-08-24T01:08:05;20.00;63.30
78886;DHT22;68269;52.514;5.722;2023-08-24T01:10:40;20.00;63.40
78886;DHT22;68269;52.514;5.722;2023-08-24T01:13:21;20.00;63.40
78886;DHT22;68269;52.514;5.722;2023-08-24T01:15:58;20.00;63.50
78886;DHT22;68269;52.514;5.722;2023-08-24T01:18:28;20.10;63.40
78886;DHT22;68269;52.514;5.722;2023-08-24T01:20:59;20.00;63.50
78886;DHT22;68269;52.514;5.722;2023-08-24T01:23:36;20.00;63.50
78886;DHT22;68269;52.514;5.722;2023-08-24T01:26:17;20.00;63.60
78886;DHT22;68269;52.514;5.722;2023-08-24T01:28:47;20.00;63.60
78886;DHT22;68269;52.514;5.722;2023-08-24T01:31:17;20.00;63.60
78886;DHT22;68269;52.514;5.722;2023-08-24T01:33:48;20.00;63.60
78886;DHT22;68269;52.514;5.722;2023-08-24T01:36:18;20.00;63.60
78886;DHT22;68269;52.514;5.722;2023-08-24T01:38:53;20.00;63.70
78886;DHT22;68269;52.514;5.722;2023-08-24T01:41:30;20.00;63.80
78886;DHT22;68269;52.514;5.722;2023-08-24T01:44:02;20.00;63.80
78886;DHT22;68269;52.514;5.722;2023-08-24T01:46:33;20.10;63.80
78886;DHT22;68269;52.514;5.722;2023-08-24T01:49:04;20.10;63.90
78886;DHT22;68269;52.514;5.722;2023-08-24T01:51:35;20.00;63.90
78886;DHT22;68269;52.514;5.722;2023-08-24T01:54:06;20.00;64.00
78886;DHT22;68269;52.514;5.722;2023-08-24T01:56:38;20.10;64.10
78886;DHT22;68269;52.514;5.722;2023-08-24T01:59:07;20.10;64.10
78886;DHT22;68269;52.514;5.722;2023-08-24T02:01:36;20.10;64.20
78886;DHT22;68269;52.514;5.722;2023-08-24T02:04:06;20.10;64.20
78886;DHT22;68269;52.514;5.722;2023-08-24T02:06:35;20.00;64.30
78886;DHT22;68269;52.514;5.722;2023-08-24T02:09:04;20.00;64.40
78886;DHT22;68269;52.514;5.722;2023-08-24T02:11:33;20.00;64.40
78886;DHT22;68269;52.514;5.722;2023-08-24T02:14:05;20.00;64.40
78886;DHT22;68269;52.514;5.722;2023-08-24T02:16:37;20.10;64.50
78886;DHT22;68269;52.514;5.722;2023-08-24T02:19:07;20.10;64.50
78886;DHT22;68269;52.514;5.722;2023-08-24T02:21:36;20.00;64.60
78886;DHT22;68269;52.514;5.722;2023-08-24T02:24:06;20.00;64.60
78886;DHT22;68269;52.514;5.722;2023-08-24T02:26:35;20.00;64.70
78886;DHT22;68269;52.514;5.722;2023-08-24T02:29:07;20.00;64.70
78886;DHT22;68269;52.514;5.722;2023-08-24T02:31:37;20.00;64.80
78886;DHT22;68269;52.514;5.722;2023-08-24T02:34:07;20.00;64.80
78886;DHT22;68269;52.514;5.722;2023-08-24T02:36:36;20.00;64.80
78886;DHT22;68269;52.514;5.722;2023-08-24T02:39:05;20.00;64.90
78886;DHT22;68269;52.514;5.722;2023-08-24T02:41:35;20.00;65.00
78886;DHT22;68269;52.514;5.722;2023-08-24T02:44:07;20.00;64.90
78886;DHT22;68269;52.514;5.722;2023-08-24T02:46:37;20.00;65.00
78886;DHT22;68269;52.514;5.722;2023-08-24T02:49:08;20.00;64.90
78886;DHT22;68269;52.514;5.722;2023-08-24T02:51:38;20.00;65.00
78886;DHT22;68269;52.514;5.722;2023-08-24T02:54:07;20.00;65.00
78886;DHT22;68269;52.514;5.722;2023-08-24T02:56:36;20.00;65.00
78886;DHT22;68269;52.514;5.722;2023-08-24T02:59:09;20.00;65.10
78886;DHT22;68269;52.514;5.722;2023-08-24T03:01:39;20.00;65.10
78886;DHT22;68269;52.514;5.722;2023-08-24T03:04:09;20.00;65.10
78886;DHT22;68269;52.514;5.722;2023-08-24T03:06:38;20.00;65.10
78886;DHT22;68269;52.514;5.722;2023-08-24T03:09:08;20.00;65.10
78886;DHT22;68269;52.514;5.722;2023-08-24T03:11:37;20.00;65.20
78886;DHT22;68269;52.514;5.722;2023-08-24T03:14:09;20.00;65.20
78886;DHT22;68269;52.514;5.722;2023-08-24T03:16:38;20.00;65.30
78886;DHT22;68269;52.514;5.722;2023-08-24T03:19:08;19.90;65.30
78886;DHT22;68269;52.514;5.722;2023-08-24T03:21:38;19.90;65.30
78886;DHT22;68269;52.514;5.722;2023-08-24T03:24:07;19.90;65.30
78886;DHT22;68269;52.514;5.722;2023-08-24T03:26:39;19.90;65.40
78886;DHT22;68269;52.514;5.722;2023-08-24T03:29:11;19.90;65.40
78886;DHT22;68269;52.514;5.722;2023-08-24T03:31:41;19.80;65.40
78886;DHT22;68269;52.514;5.722;2023-08-24T03:34:11;19.80;65.40
78886;DHT22;68269;52.514;5.722;2023-08-24T03:36:40;19.80;65.50
78886;DHT22;68269;52.514;5.722;2023-08-24T03:39:10;19.80;65.50
78886;DHT22;68269;52.514;5.722;2023-08-24T03:41:40;19.70;65.50
78886;DHT22;68269;52.514;5.722;2023-08-24T03:44:12;19.70;65.60
78886;DHT22;68269;52.514;5.722;2023-08-24T03:46:41;19.70;65.60
78886;DHT22;68269;52.514;5.722;2023-08-24T03:49:10;19.70;65.50
78886;DHT22;68269;52.514;5.722;2023-08-24T03:51:39;19.70;65.60
78886;DHT22;68269;52.514;5.722;2023-08-24T03:54:09;19.70;65.60
78886;DHT22;68269;52.514;5.722;2023-08-24T03:56:39;19.70;65.60
78886;DHT22;68269;52.514;5.722;2023-08-24T03:59:11;19.70;65.60
78886;DHT22;68269;52.514;5.722;2023-08-24T04:01:41;19.70;65.60
78886;DHT22;68269;52.514;5.722;2023-08-24T04:04:10;19.60;65.70
78886;DHT22;68269;52.514;5.722;2023-08-24T04:06:40;19.60;65.70
78886;DHT22;68269;52.514;5.722;2023-08-24T04:09:09;19.50;65.70
78886;DHT22;68269;52.514;5.722;2023-08-24T04:11:39;19.50;65.70
78886;DHT22;68269;52.514;5.722;2023-08-24T04:14:10;19.50;65.70
78886;DHT22;68269;52.514;5.722;2023-08-24T04:16:41;19.50;65.70
78886;DHT22;68269;52.514;5.722;2023-08-24T04:19:10;19.50;65.70
78886;DHT22;68269;52.514;5.722;2023-08-24T04:21:40;19.50;65.70
78886;DHT22;68269;52.514;5.722;2023-08-24T04:24:09;19.50;65.70
78886;DHT22;68269;52.514;5.722;2023-08-24T04:26:38;19.40;65.70
78886;DHT22;68269;52.514;5.722;2023-08-24T04:29:08;19.50;65.80
78886;DHT22;68269;52.514;5.722;2023-08-24T04:31:39;19.40;65.80
78886;DHT22;68269;52.514;5.722;2023-08-24T04:34:09;19.40;65.80
78886;DHT22;68269;52.514;5.722;2023-08-24T04:36:38;19.40;65.80
78886;DHT22;68269;52.514;5.722;2023-08-24T04:39:07;19.40;65.80
78886;DHT22;68269;52.514;5.722;2023-08-24T04:41:37;19.40;65.80
78886;DHT22;68269;52.514;5.722;2023-08-24T04:44:06;19.40;65.80
78886;DHT22;68269;52.514;5.722;2023-08-24T04:46:39;19.30;65.90
78886;DHT22;68269;52.514;5.722;2023-08-24T04:49:08;19.30;65.90
78886;DHT22;68269;52.514;5.722;2023-08-24T04:51:37;19.30;65.90
78886;DHT22;68269;52.514;5.722;2023-08-24T04:54:06;19.40;65.90
78886;DHT22;68269;52.514;5.722;2023-08-24T04:56:36;19.30;65.90
78886;DHT22;68269;52.514;5.722;2023-08-24T04:59:05;19.30;65.90
78886;DHT22;68269;52.514;5.722;2023-08-24T05:01:39;19.40;65.90
78886;DHT22;68269;52.514;5.722;2023-08-24T05:04:08;19.40;65.90
78886;DHT22;68269;52.514;5.722;2023-08-24T05:06:38;19.40;65.90
78886;DHT22;68269;52.514;5.722;2023-08-24T05:09:07;19.40;66.00
78886;DHT22;68269;52.514;5.722;2023-08-24T05:11:37;19.40;65.90
78886;DHT22;68269;52.514;5.722;2023-08-24T05:14:06;19.50;65.90
78886;DHT22;68269;52.514;5.722;2023-08-24T05:16:35;19.50;65.90
78886;DHT22;68269;52.514;5.722;2023-08-24T05:19:07;19.50;65.90
78886;DHT22;68269;52.514;5.722;2023-08-24T05:21:37;19.50;65.90
78886;DHT22;68269;52.514;5.722;2023-08-24T05:24:06;19.50;65.90
78886;DHT22;68269;52.514;5.722;2023-08-24T05:26:35;19.50;65.90
78886;DHT22;68269;52.514;5.722;2023-08-24T05:29:05;19.60;65.90
78886;DHT22;68269;52.514;5.722;2023-08-24T05:31:34;19.70;65.90
78886;DHT22;68269;52.514;5.722;2023-08-24T05:34:03;19.70;65.90
78886;DHT22;68269;52.514;5.722;2023-08-24T05:36:35;19.70;65.90
78886;DHT22;68269;52.514;5.722;2023-08-24T05:39:05;19.70;65.90
78886;DHT22;68269;52.514;5.722;2023-08-24T05:41:35;19.70;65.90
78886;DHT22;68269;52.514;5.722;2023-08-24T05:44:04;19.70;65.90
78886;DHT22;68269;52.514;5.722;2023-08-24T05:46:34;19.70;65.90
78886;DHT22;68269;52.514;5.722;2023-08-24T05:49:03;19.70;65.90
78886;DHT22;68269;52.514;5.722;2023-08-24T05:51:36;19.80;65.90
78886;DHT22;68269;52.514;5.722;2023-08-24T05:54:05;19.80;66.00
78886;DHT22;68269;52.514;5.722;2023-08-24T05:56:34;19.80;65.90
78886;DHT22;68269;52.514;5.722;2023-08-24T05:59:04;19.80;66.00
78886;DHT22;68269;52.514;5.722;2023-08-24T06:01:33;19.90;66.00
78886;DHT22;68269;52.514;5.722;2023-08-24T06:04:04;19.90;66.00
78886;DHT22;68269;52.514;5.722;2023-08-24T06:06:36;19.90;66.00
78886;DHT22;68269;52.514;5.722;2023-08-24T06:09:06;19.90;66.00
78886;DHT22;68269;52.514;5.722;2023-08-24T06:11:36;20.00;66.00
78886;DHT22;68269;52.514;5.722;2023-08-24T06:14:07;20.00;66.00
78886;DHT22;68269;52.514;5.722;2023-08-24T06:16:36;20.00;66.00
78886;DHT22;68269;52.514;5.722;2023-08-24T06:19:05;20.00;66.10
78886;DHT22;68269;52.514;5.722;2023-08-24T06:21:37;20.10;66.10
78886;DHT22;68269;52.514;5.722;2023-08-24T06:24:06;20.10;66.00
78886;DHT22;68269;52.514;5.722;2023-08-24T06:26:36;20.10;66.10
78886;DHT22;68269;52.514;5.722;2023-08-24T06:29:05;20.20;66.10
78886;DHT22;68269;52.514;5.722;2023-08-24T06:31:34;20.20;66.20
78886;DHT22;68269;52.514;5.722;2023-08-24T06:34:04;20.30;66.20
78886;DHT22;68269;52.514;5.722;2023-08-24T06:36:33;20.30;66.20
78886;DHT22;68269;52.514;5.722;2023-08-24T06:39:05;20.30;66.20
78886;DHT22;68269;52.514;5.722;2023-08-24T06:41:35;20.40;66.20
78886;DHT22;68269;52.514;5.722;2023-08-24T06:44:07;20.50;66.20
78886;DHT22;68269;52.514;5.722;2023-08-24T06:46:36;20.50;66.20
78886;DHT22;68269;52.514;5.722;2023-08-24T06:49:06;20.50;66.20
78886;DHT22;68269;52.514;5.722;2023-08-24T06:51:35;20.50;66.30
78886;DHT22;68269;52.514;5.722;2023-08-24T06:54:07;20.50;66.30
78886;DHT22;68269;52.514;5.722;2023-08-24T06:56:36;20.60;66.30
78886;DHT22;68269;52.514;5.722;2023-08-24T06:59:06;20.60;66.30
78886;DHT22;68269;52.514;5.722;2023-08-24T07:01:36;20.70;66.30
78886;DHT22;68269;52.514;5.722;2023-08-24T07:04:05;20.70;66.30
78886;DHT22;68269;52.514;5.722;2023-08-24T07:06:34;20.80;66.30
78886;DHT22;68269;52.514;5.722;2023-08-24T07:09:04;20.80;66.30
78886;DHT22;68269;52.514;5.722;2023-08-24T07:11:36;20.90;66.40
78886;DHT22;68269;52.514;5.722;2023-08-24T07:14:06;20.90;66.40
78886;DHT22;68269;52.514;5.722;2023-08-24T07:16:35;21.00;66.40
78886;DHT22;68269;52.514;5.722;2023-08-24T07:19:04;21.00;66.40
78886;DHT22;68269;52.514;5.722;2023-08-24T07:21:35;21.00;66.40
78886;DHT22;68269;52.514;5.722;2023-08-24T07:24:04;21.00;66.50
78886;DHT22;68269;52.514;5.722;2023-08-24T07:26:36;21.00;66.50
78886;DHT22;68269;52.514;5.722;2023-08-24T07:29:05;21.10;66.50
78886;DHT22;68269;52.514;5.722;2023-08-24T07:31:35;21.10;66.50
78886;DHT22;68269;52.514;5.722;2023-08-24T07:34:05;21.10;66.50
78886;DHT22;68269;52.514;5.722;2023-08-24T07:36:34;21.10;66.50
78886;DHT22;68269;52.514;5.722;2023-08-24T07:39:03;21.10;66.50
78886;DHT22;68269;52.514;5.722;2023-08-24T07:41:36;21.10;66.60
78886;DHT22;68269;52.514;5.722;2023-08-24T07:44:05;21.10;66.60
78886;DHT22;68269;52.514;5.722;2023-08-24T07:46:35;21.20;66.50
78886;DHT22;68269;52.514;5.722;2023-08-24T07:49:04;21.30;66.60
78886;DHT22;68269;52.514;5.722;2023-08-24T07:51:33;21.40;66.60
78886;DHT22;68269;52.514;5.722;2023-08-24T07:54:03;21.40;66.60
78886;DHT22;68269;52.514;5.722;2023-08-24T07:56:36;21.50;66.60
78886;DHT22;68269;52.514;5.722;2023-08-24T07:59:05;21.50;66.60
78886;DHT22;68269;52.514;5.722;2023-08-24T08:01:34;21.50;66.70
78886;DHT22;68269;52.514;5.722;2023-08-24T08:04:04;21.50;66.60
78886;DHT22;68269;52.514;5.722;2023-08-24T08:06:33;21.70;66.60
78886;DHT22;68269;52.514;5.722;2023-08-24T08:09:03;21.70;66.60
78886;DHT22;68269;52.514;5.722;2023-08-24T08:11:32;21.70;66.60
78886;DHT22;68269;52.514;5.722;2023-08-24T08:14:04;21.90;66.60
78886;DHT22;68269;52.514;5.722;2023-08-24T08:16:33;21.90;66.50
78886;DHT22;68269;52.514;5.722;2023-08-24T08:19:02;22.00;66.50
78886;DHT22;68269;52.514;5.722;2023-08-24T08:21:33;22.00;66.50
78886;DHT22;68269;52.514;5.722;2023-08-24T08:24:02;22.10;66.50
78886;DHT22;68269;52.514;5.722;2023-08-24T08:26:32;22.20;66.50
78886;DHT22;68269;52.514;5.722;2023-08-24T08:29:04;22.30;66.50
78886;DHT22;68269;52.514;5.722;2023-08-24T08:31:33;22.40;66.50
78886;DHT22;68269;52.514;5.722;2023-08-24T08:34:03;22.50;66.40
78886;DHT22;68269;52.514;5.722;2023-08-24T08:36:33;22.50;66.40
78886;DHT22;68269;52.514;5.722;2023-08-24T08:39:02;22.60;66.30
78886;DHT22;68269;52.514;5.722;2023-08-24T08:41:37;22.70;66.20
78886;DHT22;68269;52.514;5.722;2023-08-24T08:44:13;22.80;66.10
78886;DHT22;68269;52.514;5.722;2023-08-24T08:46:43;22.90;66.10
78886;DHT22;68269;52.514;5.722;2023-08-24T08:49:14;22.90;66.10
78886;DHT22;68269;52.514;5.722;2023-08-24T08:51:45;23.00;66.00
78886;DHT22;68269;52.514;5.722;2023-08-24T08:54:14;23.10;66.00
78886;DHT22;68269;52.514;5.722;2023-08-24T08:56:44;23.20;65.90
78886;DHT22;68269;52.514;5.722;2023-08-24T08:59:16;23.20;65.90
78886;DHT22;68269;52.514;5.722;2023-08-24T09:01:46;23.30;65.80
78886;DHT22;68269;52.514;5.722;2023-08-24T09:04:17;23.30;65.80
78886;DHT22;68269;52.514;5.722;2023-08-24T09:06:46;23.30;65.80
78886;DHT22;68269;52.514;5.722;2023-08-24T09:09:16;23.30;65.80
78886;DHT22;68269;52.514;5.722;2023-08-24T09:11:46;23.30;65.80
78886;DHT22;68269;52.514;5.722;2023-08-24T09:14:18;23.30;65.80
78886;DHT22;68269;52.514;5.722;2023-08-24T09:16:47;23.30;65.80
78886;DHT22;68269;52.514;5.722;2023-08-24T09:19:18;23.40;65.80
78886;DHT22;68269;52.514;5.722;2023-08-24T09:21:47;23.50;65.70
78886;DHT22;68269;52.514;5.722;2023-08-24T09:24:17;23.50;65.60
78886;DHT22;68269;52.514;5.722;2023-08-24T09:26:46;23.50;65.60
78886;DHT22;68269;52.514;5.722;2023-08-24T09:29:18;23.50;65.60
78886;DHT22;68269;52.514;5.722;2023-08-24T09:31:50;23.60;65.50
78886;DHT22;68269;52.514;5.722;2023-08-24T09:34:20;23.50;65.50
78886;DHT22;68269;52.514;5.722;2023-08-24T09:36:52;23.60;65.50
78886;DHT22;68269;52.514;5.722;2023-08-24T09:39:22;23.60;65.40
78886;DHT22;68269;52.514;5.722;2023-08-24T09:41:51;23.60;65.50
78886;DHT22;68269;52.514;5.722;2023-08-24T09:44:23;23.60;65.50
78886;DHT22;68269;52.514;5.722;2023-08-24T09:46:52;23.60;65.50
78886;DHT22;68269;52.514;5.722;2023-08-24T09:49:22;23.50;65.60
78886;DHT22;68269;52.514;5.722;2023-08-24T09:51:56;23.50;65.50
78886;DHT22;68269;52.514;5.722;2023-08-24T09:54:26;23.50;65.50
78886;DHT22;68269;52.514;5.722;2023-08-24T09:56:57;23.50;65.50
78886;DHT22;68269;52.514;5.722;2023-08-24T09:59:31;23.50;65.60
78886;DHT22;68269;52.514;5.722;2023-08-24T10:02:02;23.50;65.50
78886;DHT22;68269;52.514;5.722;2023-08-24T10:04:34;23.50;65.60
78886;DHT22;68269;52.514;5.722;2023-08-24T10:07:06;23.40;65.60
78886;DHT22;68269;52.514;5.722;2023-08-24T10:09:43;23.40;65.70
78886;DHT22;68269;52.514;5.722;2023-08-24T10:12:14;23.40;65.70
78886;DHT22;68269;52.514;5.722;2023-08-24T10:14:53;23.30;65.80
78886;DHT22;68269;52.514;5.722;2023-08-24T10:17:26;23.30;65.80
78886;DHT22;68269;52.514;5.722;2023-08-24T10:19:57;23.30;65.80
78886;DHT22;68269;52.514;5.722;2023-08-24T10:22:27;23.30;65.80
78886;DHT22;68269;52.514;5.722;2023-08-24T10:24:57;23.30;65.90
78886;DHT22;68269;52.514;5.722;2023-08-24T10:27:27;23.30;65.80
78886;DHT22;68269;52.514;5.722;2023-08-24T10:29:59;23.20;65.90
78886;DHT22;68269;52.514;5.722;2023-08-24T10:32:29;23.20;66.00
78886;DHT22;68269;52.514;5.722;2023-08-24T10:34:59;23.20;66.00
78886;DHT22;68269;52.514;5.722;2023-08-24T10:37:28;23.20;66.00
78886;DHT22;68269;52.514;5.722;2023-08-24T10:40:00;23.20;66.00
78886;DHT22;68269;52.514;5.722;2023-08-24T10:42:43;23.20;66.00
78886;DHT22;68269;52.514;5.722;2023-08-24T10:45:23;23.30;66.00
78886;DHT22;68269;52.514;5.722;2023-08-24T10:47:52;23.30;66.10
78886;DHT22;68269;52.514;5.722;2023-08-24T10:50:22;23.30;66.10
78886;DHT22;68269;52.514;5.722;2023-08-24T10:52:51;23.40;66.10
78886;DHT22;68269;52.514;5.722;2023-08-24T10:55:26;23.40;66.10
78886;DHT22;68269;52.514;5.722;2023-08-24T10:57:56;23.40;66.10
78886;DHT22;68269;52.514;5.722;2023-08-24T11:00:30;23.40;66.20
78886;DHT22;68269;52.514;5.722;2023-08-24T11:02:59;23.40;66.30
78886;DHT22;68269;52.514;5.722;2023-08-24T11:05:30;23.40;66.30
78886;DHT22;68269;52.514;5.722;2023-08-24T11:08:02;23.40;66.50
78886;DHT22;68269;52.514;5.722;2023-08-24T11:10:33;23.40;66.40
78886;DHT22;68269;52.514;5.722;2023-08-24T11:13:05;23.40;66.50
78886;DHT22;68269;52.514;5.722;2023-08-24T11:15:37;23.40;66.60
78886;DHT22;68269;52.514;5.722;2023-08-24T11:18:24;23.40;66.80
78886;DHT22;68269;52.514;5.722;2023-08-24T11:20:55;23.50;67.00
78886;DHT22;68269;52.514;5.722;2023-08-24T11:23:25;23.50;67.00
78886;DHT22;68269;52.514;5.722;2023-08-24T11:25:56;23.50;67.20
78886;DHT22;68269;52.514;5.722;2023-08-24T11:28:27;23.50;67.30
78886;DHT22;68269;52.514;5.722;2023-08-24T11:30:59;23.40;67.50
78886;DHT22;68269;52.514;5.722;2023-08-24T11:33:29;23.40;67.60
78886;DHT22;68269;52.514;5.722;2023-08-24T11:35:59;23.40;67.70
78886;DHT22;68269;52.514;5.722;2023-08-24T11:38:39;23.40;67.90
78886;DHT22;68269;52.514;5.722;2023-08-24T11:41:12;23.40;68.00
78886;DHT22;68269;52.514;5.722;2023-08-24T11:43:42;23.40;68.10
78886;DHT22;68269;52.514;5.722;2023-08-24T11:46:15;23.50;68.20
78886;DHT22;68269;52.514;5.722;2023-08-24T11:48:45;23.50;68.30
78886;DHT22;68269;52.514;5.722;2023-08-24T11:51:14;23.50;68.40
78886;DHT22;68269;52.514;5.722;2023-08-24T11:53:45;23.60;68.40
78886;DHT22;68269;52.514;5.722;2023-08-24T11:56:14;23.60;68.40
78886;DHT22;68269;52.514;5.722;2023-08-24T11:58:48;23.60;68.50
78886;DHT22;68269;52.514;5.722;2023-08-24T12:01:21;23.60;68.60
78886;DHT22;68269;52.514;5.722;2023-08-24T12:03:51;23.60;68.60
78886;DHT22;68269;52.514;5.722;2023-08-24T12:06:20;23.60;68.60
78886;DHT22;68269;52.514;5.722;2023-08-24T12:08:49;23.60;68.60
78886;DHT22;68269;52.514;5.722;2023-08-24T12:11:20;23.70;68.70
78886;DHT22;68269;52.514;5.722;2023-08-24T12:13:52;23.80;68.70
78886;DHT22;68269;52.514;5.722;2023-08-24T12:16:25;23.80;68.70
78886;DHT22;68269;52.514;5.722;2023-08-24T12:18:56;23.80;68.70
78886;DHT22;68269;52.514;5.722;2023-08-24T12:21:26;23.90;68.70
78886;DHT22;68269;52.514;5.722;2023-08-24T12:23:56;23.90;68.60
78886;DHT22;68269;52.514;5.722;2023-08-24T12:26:26;23.90;68.70
78886;DHT22;68269;52.514;5.722;2023-08-24T12:29:00;23.90;68.80
78886;DHT22;68269;52.514;5.722;2023-08-24T12:31:34;23.90;68.80
78886;DHT22;68269;52.514;5.722;2023-08-24T12:34:05;23.90;68.70
78886;DHT22;68269;52.514;5.722;2023-08-24T12:36:36;23.90;68.80
78886;DHT22;68269;52.514;5.722;2023-08-24T12:39:07;23.90;68.90
78886;DHT22;68269;52.514;5.722;2023-08-24T12:41:39;24.00;68.90
78886;DHT22;68269;52.514;5.722;2023-08-24T12:44:08;24.00;68.90
78886;DHT22;68269;52.514;5.722;2023-08-24T12:46:40;23.90;68.90
78886;DHT22;68269;52.514;5.722;2023-08-24T12:49:09;23.90;69.00
78886;DHT22;68269;52.514;5.722;2023-08-24T12:51:38;23.90;69.00
78886;DHT22;68269;52.514;5.722;2023-08-24T12:54:08;23.90;69.10
78886;DHT22;68269;52.514;5.722;2023-08-24T12:56:38;23.80;69.10
78886;DHT22;68269;52.514;5.722;2023-08-24T12:59:09;23.90;69.10
78886;DHT22;68269;52.514;5.722;2023-08-24T13:01:40;23.80;69.20
78886;DHT22;68269;52.514;5.722;2023-08-24T13:04:10;23.90;69.20
78886;DHT22;68269;52.514;5.722;2023-08-24T13:06:39;23.80;69.10
78886;DHT22;68269;52.514;5.722;2023-08-24T13:09:08;23.80;69.20
78886;DHT22;68269;52.514;5.722;2023-08-24T13:11:38;23.80;69.20
78886;DHT22;68269;52.514;5.722;2023-08-24T13:14:07;23.80;69.20
78886;DHT22;68269;52.514;5.722;2023-08-24T13:16:40;23.80;69.20
78886;DHT22;68269;52.514;5.722;2023-08-24T13:19:09;23.80;69.20
78886;DHT22;68269;52.514;5.722;2023-08-24T13:21:38;23.70;69.20
78886;DHT22;68269;52.514;5.722;2023-08-24T13:24:08;23.70;69.20
78886;DHT22;68269;52.514;5.722;2023-08-24T13:26:37;23.70;69.30
78886;DHT22;68269;52.514;5.722;2023-08-24T13:29:06;23.60;69.20
78886;DHT22;68269;52.514;5.722;2023-08-24T13:31:35;23.60;69.20
78886;DHT22;68269;52.514;5.722;2023-08-24T13:34:07;23.60;69.20
78886;DHT22;68269;52.514;5.722;2023-08-24T13:36:37;23.60;69.30
78886;DHT22;68269;52.514;5.722;2023-08-24T13:39:06;23.60;69.30
78886;DHT22;68269;52.514;5.722;2023-08-24T13:41:37;23.60;69.20
78886;DHT22;68269;52.514;5.722;2023-08-24T13:44:06;23.60;69.20
78886;DHT22;68269;52.514;5.722;2023-08-24T13:46:35;23.60;69.10
78886;DHT22;68269;52.514;5.722;2023-08-24T13:49:07;23.60;69.20
78886;DHT22;68269;52.514;5.722;2023-08-24T13:51:37;23.60;69.10
78886;DHT22;68269;52.514;5.722;2023-08-24T13:54:13;23.60;69.10
78886;DHT22;68269;52.514;5.722;2023-08-24T13:56:44;23.60;69.10
78886;DHT22;68269;52.514;5.722;2023-08-24T13:59:14;23.60;69.20
78886;DHT22;68269;52.514;5.722;2023-08-24T14:01:43;23.60;69.10
78886;DHT22;68269;52.514;5.722;2023-08-24T14:04:15;23.50;69.10
78886;DHT22;68269;52.514;5.722;2023-08-24T14:06:45;23.50;69.10
78886;DHT22;68269;52.514;5.722;2023-08-24T14:09:14;23.50;69.00
78886;DHT22;68269;52.514;5.722;2023-08-24T14:11:44;23.50;69.10
78886;DHT22;68269;52.514;5.722;2023-08-24T14:14:14;23.50;69.00
78886;DHT22;68269;52.514;5.722;2023-08-24T14:16:43;23.40;69.00
78886;DHT22;68269;52.514;5.722;2023-08-24T14:19:15;23.40;69.10
78886;DHT22;68269;52.514;5.722;2023-08-24T14:21:45;23.50;69.10
78886;DHT22;68269;52.514;5.722;2023-08-24T14:24:14;23.50;69.10
78886;DHT22;68269;52.514;5.722;2023-08-24T14:26:44;23.50;69.10
78886;DHT22;68269;52.514;5.722;2023-08-24T14:29:14;23.50;69.20
78886;DHT22;68269;52.514;5.722;2023-08-24T14:31:43;23.50;69.20
78886;DHT22;68269;52.514;5.722;2023-08-24T14:34:15;23.50;69.20
78886;DHT22;68269;52.514;5.722;2023-08-24T14:36:44;23.50;69.30
78886;DHT22;68269;52.514;5.722;2023-08-24T14:39:14;23.60;69.20
78886;DHT22;68269;52.514;5.722;2023-08-24T14:41:43;23.60;69.20
78886;DHT22;68269;52.514;5.722;2023-08-24T14:44:12;23.60;69.20
78886;DHT22;68269;52.514;5.722;2023-08-24T14:46:42;23.60;69.20
78886;DHT22;68269;52.514;5.722;2023-08-24T14:49:11;23.60;69.10
78886;DHT22;68269;52.514;5.722;2023-08-24T14:51:47;23.70;69.20
78886;DHT22;68269;52.514;5.722;2023-08-24T14:54:16;23.80;69.20
78886;DHT22;68269;52.514;5.722;2023-08-24T14:56:46;23.80;69.20
78886;DHT22;68269;52.514;5.722;2023-08-24T14:59:15;23.70;69.20
78886;DHT22;68269;52.514;5.722;2023-08-24T15:01:44;23.70;69.20
78886;DHT22;68269;52.514;5.722;2023-08-24T15:04:14;23.80;69.20
78886;DHT22;68269;52.514;5.722;2023-08-24T15:06:43;23.70;69.20
78886;DHT22;68269;52.514;5.722;2023-08-24T15:09:15;23.70;69.20
78886;DHT22;68269;52.514;5.722;2023-08-24T15:11:44;23.80;69.30
78886;DHT22;68269;52.514;5.722;2023-08-24T15:14:14;23.80;69.30
78886;DHT22;68269;52.514;5.722;2023-08-24T15:16:43;23.80;69.30
78886;DHT22;68269;52.514;5.722;2023-08-24T15:19:12;23.80;69.20
78886;DHT22;68269;52.514;5.722;2023-08-24T15:21:42;23.80;69.20
78886;DHT22;68269;52.514;5.722;2023-08-24T15:24:14;23.80;69.20
78886;DHT22;68269;52.514;5.722;2023-08-24T15:26:43;23.90;69.20
78886;DHT22;68269;52.514;5.722;2023-08-24T15:29:13;23.90;69.20
78886;DHT22;68269;52.514;5.722;2023-08-24T15:31:44;23.90;69.10
78886;DHT22;68269;52.514;5.722;2023-08-24T15:34:13;23.90;69.10
78886;DHT22;68269;52.514;5.722;2023-08-24T15:36:44;23.90;69.10
78886;DHT22;68269;52.514;5.722;2023-08-24T15:39:16;23.90;69.10
78886;DHT22;68269;52.514;5.722;2023-08-24T15:41:45;24.00;69.10
78886;DHT22;68269;52.514;5.722;2023-08-24T15:44:14;24.00;69.10
78886;DHT22;68269;52.514;5.722;2023-08-24T15:46:44;24.00;69.10
78886;DHT22;68269;52.514;5.722;2023-08-24T15:49:13;24.00;69.10